createdAt,value
2022-10-17T00:00:40.025Z,12.40
2022-10-17T00:03:07.090Z,9.88
2022-10-17T00:05:33.814Z,10.85
2022-10-17T00:08:00.442Z,16.45
2022-10-17T00:10:27.032Z,11.13
2022-10-17T00:12:53.581Z,11.95
2022-10-17T00:15:21.138Z,9.27
2022-10-17T00:17:48.108Z,9.63
2022-10-17T00:20:15.762Z,8.65
2022-10-17T00:22:42.927Z,9.18
2022-10-17T00:25:10.294Z,8.75
2022-10-17T00:30:06.437Z,7.40
2022-10-17T00:32:33.086Z,8.13
2022-10-17T00:34:59.622Z,7.97
2022-10-17T00:37:26.326Z,10.20
2022-10-17T00:39:54.081Z,9.43
2022-10-17T00:42:20.710Z,9.60
2022-10-17T00:44:47.698Z,7.30
2022-10-17T00:47:17.540Z,8.88
2022-10-17T00:49:44.411Z,7.15
2022-10-17T00:52:21.253Z,8.65
2022-10-17T00:55:02.397Z,7.93
2022-10-17T00:57:31.652Z,6.35
2022-10-17T01:00:00.745Z,9.10
2022-10-17T01:02:27.570Z,9.80
2022-10-17T01:04:59.367Z,8.98
2022-10-17T01:07:29.292Z,7.18
2022-10-17T01:09:58.391Z,7.90
2022-10-17T01:12:28.030Z,8.25
2022-10-17T01:15:22.743Z,8.50
2022-10-17T01:18:00.988Z,7.18
2022-10-17T01:20:27.431Z,7.72
2022-10-17T01:22:57.009Z,7.57
2022-10-17T01:26:13.047Z,7.65
2022-10-17T01:28:58.232Z,11.57
2022-10-17T01:31:34.183Z,10.40
2022-10-17T01:34:07.983Z,11.07
2022-10-17T01:36:47.640Z,7.30
2022-10-17T01:39:19.929Z,8.13
2022-10-17T01:42:07.078Z,9.00
2022-10-17T01:44:46.611Z,7.97
2022-10-17T01:47:17.537Z,7.68
2022-10-17T01:49:46.620Z,10.27
2022-10-17T01:52:18.693Z,8.55
2022-10-17T01:54:51.338Z,7.32
2022-10-17T01:57:29.532Z,9.77
2022-10-17T01:59:57.291Z,9.88
2022-10-17T02:02:26.632Z,7.43
2022-10-17T02:04:55.623Z,7.38
2022-10-17T02:07:22.498Z,7.78
2022-10-17T02:09:49.004Z,11.57
2022-10-17T02:12:32.243Z,7.90
2022-10-17T02:15:19.916Z,7.63
2022-10-17T02:18:15.840Z,9.25
2022-10-17T02:21:03.095Z,7.93
2022-10-17T02:23:44.312Z,17.90
2022-10-17T02:26:16.993Z,9.55
2022-10-17T02:28:52.235Z,9.18
2022-10-17T02:31:24.143Z,8.48
2022-10-17T02:34:04.961Z,7.22
2022-10-17T02:36:37.743Z,6.90
2022-10-17T02:39:06.572Z,7.53
2022-10-17T02:41:34.577Z,7.35
2022-10-17T02:44:03.753Z,8.63
2022-10-17T02:46:32.367Z,8.52
2022-10-17T02:49:10.485Z,7.15
2022-10-17T02:51:45.334Z,7.90
2022-10-17T02:54:22.282Z,7.30
2022-10-17T02:57:12.601Z,7.25
2022-10-17T02:59:41.933Z,7.68
2022-10-17T03:02:08.582Z,8.02
2022-10-17T03:04:35.092Z,8.73
2022-10-17T03:07:01.703Z,8.73
2022-10-17T03:09:28.265Z,9.77
2022-10-17T03:11:55.018Z,10.57
2022-10-17T03:14:21.612Z,8.35
2022-10-17T03:16:48.145Z,5.72
2022-10-17T03:19:14.665Z,8.83
2022-10-17T03:21:41.410Z,8.43
2022-10-17T03:24:07.998Z,8.30
2022-10-17T03:26:34.747Z,7.88
2022-10-17T03:29:01.384Z,9.20
2022-10-17T03:31:27.950Z,9.73
2022-10-17T03:33:54.560Z,5.10
2022-10-17T03:36:21.212Z,9.10
2022-10-17T03:38:48.339Z,5.95
2022-10-17T03:41:15.023Z,7.78
2022-10-17T03:43:41.566Z,9.25
2022-10-17T03:46:08.404Z,11.25
2022-10-17T03:48:35.123Z,13.18
2022-10-17T03:51:03.979Z,11.50
2022-10-17T03:53:30.705Z,11.85
2022-10-17T03:55:57.863Z,10.35
2022-10-17T03:58:24.445Z,13.80
2022-10-17T04:00:51.095Z,11.73
2022-10-17T04:03:17.687Z,12.90
2022-10-17T04:05:44.392Z,14.50
2022-10-17T04:08:10.933Z,10.67
2022-10-17T04:10:37.623Z,13.70
2022-10-17T04:13:04.643Z,12.98
2022-10-17T04:15:31.153Z,12.82
2022-10-17T04:17:57.669Z,11.33
2022-10-17T04:20:24.301Z,14.70
2022-10-17T04:22:50.841Z,12.43
2022-10-17T04:25:17.358Z,15.67
2022-10-17T04:27:43.934Z,8.43
2022-10-17T04:30:10.979Z,21.67
2022-10-17T04:32:39.082Z,11.27
2022-10-17T04:35:06.162Z,10.10
2022-10-17T04:37:32.714Z,11.25
2022-10-17T04:39:59.418Z,24.92
2022-10-17T04:42:26.087Z,17.92
2022-10-17T04:44:52.702Z,14.75
2022-10-17T04:47:19.214Z,12.75
2022-10-17T04:49:45.752Z,10.70
2022-10-17T04:52:12.311Z,12.53
2022-10-17T04:54:38.817Z,15.37
2022-10-17T04:57:05.355Z,11.13
2022-10-17T04:59:31.910Z,12.13
2022-10-17T05:01:58.430Z,12.15
2022-10-17T05:04:25.667Z,12.73
2022-10-17T05:06:52.477Z,9.85
2022-10-17T05:09:18.985Z,9.57
2022-10-17T05:11:45.576Z,8.43
2022-10-17T05:14:12.154Z,13.77
2022-10-17T05:16:38.776Z,6.70
2022-10-17T05:19:05.351Z,9.77
2022-10-17T05:24:07.861Z,13.10
2022-10-17T05:26:34.453Z,18.73
2022-10-17T05:29:05.448Z,21.35
2022-10-17T05:31:32.211Z,16.80
2022-10-17T05:34:02.771Z,15.13
2022-10-17T05:36:29.567Z,12.63
2022-10-17T05:38:56.306Z,14.18
2022-10-17T05:41:23.002Z,12.73
2022-10-17T05:43:50.351Z,13.35
2022-10-17T05:48:43.427Z,13.88
2022-10-17T05:51:10.311Z,20.20
2022-10-17T05:53:39.450Z,16.58
2022-10-17T05:56:08.341Z,14.32
2022-10-17T05:58:53.290Z,15.18
2022-10-17T06:01:21.652Z,14.35
2022-10-17T06:03:48.306Z,13.50
2022-10-17T06:06:15.808Z,13.95
2022-10-17T06:08:42.724Z,11.48
2022-10-17T06:11:10.502Z,11.23
2022-10-17T06:13:38.539Z,13.88
2022-10-17T06:16:06.101Z,16.23
2022-10-17T06:18:33.161Z,18.25
2022-10-17T06:21:09.010Z,18.45
2022-10-17T06:23:35.630Z,17.98
2022-10-17T06:26:04.443Z,14.40
2022-10-17T06:28:31.452Z,24.38
2022-10-17T06:30:58.306Z,14.45
2022-10-17T06:33:25.303Z,16.48
2022-10-17T06:35:55.832Z,12.13
2022-10-17T06:38:23.307Z,13.73
2022-10-17T06:43:16.328Z,13.85
2022-10-17T06:45:43.021Z,13.57
2022-10-17T06:48:09.680Z,12.05
2022-10-17T06:50:36.281Z,13.57
2022-10-17T06:53:03.178Z,15.00
2022-10-17T06:55:31.394Z,9.77
2022-10-17T06:57:58.306Z,15.13
2022-10-17T07:00:26.721Z,11.63
2022-10-17T07:02:53.237Z,27.25
2022-10-17T07:05:19.774Z,17.97
2022-10-17T07:07:48.489Z,13.00
2022-10-17T07:10:18.520Z,13.93
2022-10-17T07:12:45.878Z,11.60
2022-10-17T07:15:12.977Z,13.65
2022-10-17T07:17:39.551Z,11.23
2022-10-17T07:20:06.638Z,15.27
2022-10-17T07:22:33.175Z,11.73
2022-10-17T07:24:59.752Z,12.63
2022-10-17T07:27:26.516Z,18.17
2022-10-17T07:29:53.122Z,13.77
2022-10-17T07:32:19.645Z,57.17
2022-10-17T07:34:46.278Z,33.07
2022-10-17T07:37:12.842Z,16.65
2022-10-17T07:39:40.132Z,11.23
2022-10-17T07:42:07.792Z,12.75
2022-10-17T07:44:35.579Z,10.68
2022-10-17T07:47:02.303Z,11.70
2022-10-17T07:49:29.368Z,11.07
2022-10-17T07:51:55.971Z,8.15
2022-10-17T07:54:22.810Z,9.38
2022-10-17T07:56:50.676Z,7.95
2022-10-17T07:59:18.947Z,8.05
2022-10-17T08:01:45.552Z,11.63
2022-10-17T08:04:12.122Z,10.73
2022-10-17T08:06:38.777Z,7.82
2022-10-17T08:09:05.420Z,10.93
2022-10-17T08:11:31.939Z,10.73
2022-10-17T08:13:58.504Z,6.82
2022-10-17T08:16:25.019Z,9.93
2022-10-17T08:18:51.634Z,7.57
2022-10-17T08:21:18.207Z,10.00
2022-10-17T08:23:44.731Z,10.43
2022-10-17T08:26:13.494Z,8.63
2022-10-17T08:28:40.955Z,7.45
2022-10-17T08:31:13.124Z,9.60
2022-10-17T08:33:40.110Z,7.53
2022-10-17T08:36:08.328Z,10.38
2022-10-17T08:38:37.624Z,7.95
2022-10-17T08:41:13.233Z,6.90
2022-10-17T08:43:42.435Z,10.38
2022-10-17T08:46:09.898Z,7.82
2022-10-17T08:48:45.606Z,6.43
2022-10-17T08:51:18.230Z,6.50
2022-10-17T08:54:01.491Z,7.47
2022-10-17T08:56:55.586Z,6.07
2022-10-17T08:59:30.424Z,9.10
2022-10-17T09:02:01.333Z,7.50
2022-10-17T09:04:42.469Z,11.18
2022-10-17T09:07:16.395Z,11.07
2022-10-17T09:10:00.919Z,6.68
2022-10-17T09:12:46.135Z,9.15
2022-10-17T09:15:22.667Z,9.82
2022-10-17T09:17:53.200Z,11.05
2022-10-17T09:20:23.993Z,14.55
2022-10-17T09:23:05.040Z,10.07
2022-10-17T09:25:41.781Z,10.80
2022-10-17T09:28:17.323Z,10.95
2022-10-17T09:30:45.939Z,13.82
2022-10-17T09:33:35.231Z,11.52
2022-10-17T09:36:25.877Z,14.20
2022-10-17T09:38:58.303Z,10.77
2022-10-17T09:41:50.774Z,14.35
2022-10-17T09:44:35.903Z,8.18
2022-10-17T09:47:22.669Z,13.00
2022-10-17T09:49:50.345Z,12.55
2022-10-17T09:52:22.785Z,9.98
2022-10-17T09:55:34.040Z,12.40
2022-10-17T09:58:06.143Z,12.13
2022-10-17T10:00:45.094Z,9.35
2022-10-17T10:03:22.230Z,9.95
2022-10-17T10:08:58.668Z,10.15
2022-10-17T10:11:48.847Z,9.40
2022-10-17T10:14:35.818Z,9.73
2022-10-17T10:19:32.741Z,8.88
2022-10-17T10:22:02.488Z,10.57
2022-10-17T10:24:31.185Z,6.82
2022-10-17T10:27:01.427Z,10.90
2022-10-17T10:29:32.753Z,12.57
2022-10-17T10:32:10.814Z,7.40
2022-10-17T10:34:44.357Z,11.27
2022-10-17T10:37:21.517Z,8.90
2022-10-17T10:42:27.417Z,10.02
2022-10-17T10:44:57.667Z,8.30
2022-10-17T10:47:29.533Z,7.63
2022-10-17T10:50:21.273Z,7.35
2022-10-17T10:52:57.901Z,8.30
2022-10-17T10:55:32.340Z,9.18
2022-10-17T10:58:08.129Z,9.10
2022-10-17T11:00:37.982Z,8.65
2022-10-17T11:03:15.912Z,6.68
2022-10-17T11:05:49.663Z,5.60
2022-10-17T11:08:37.761Z,5.97
2022-10-17T11:11:18.101Z,11.25
2022-10-17T11:14:05.396Z,4.82
2022-10-17T11:16:39.974Z,9.00
2022-10-17T11:19:09.310Z,6.45
2022-10-17T11:22:09.719Z,8.13
2022-10-17T11:24:46.476Z,8.00
2022-10-17T11:27:13.035Z,13.38
2022-10-17T11:29:41.615Z,11.60
2022-10-17T11:32:34.575Z,11.82
2022-10-17T11:35:25.427Z,10.02
2022-10-17T11:38:15.444Z,11.98
2022-10-17T11:40:48.501Z,8.38
2022-10-17T11:43:20.332Z,6.82
2022-10-17T11:45:51.986Z,7.25
2022-10-17T11:48:29.776Z,10.20
2022-10-17T11:54:26.764Z,11.88
2022-10-17T11:57:24.406Z,8.35
2022-10-17T11:59:57.130Z,5.53
2022-10-17T12:02:49.460Z,6.75
2022-10-17T12:05:22.530Z,5.47
2022-10-17T12:07:57.826Z,9.00
2022-10-17T12:10:45.322Z,6.53
2022-10-17T12:13:33.738Z,4.95
2022-10-17T12:16:18.661Z,7.10
2022-10-17T12:18:49.675Z,6.72
2022-10-17T12:21:16.533Z,5.10
2022-10-17T12:23:53.109Z,5.47
2022-10-17T12:26:28.628Z,8.05
2022-10-17T12:28:56.751Z,7.10
2022-10-17T12:31:28.518Z,10.77
2022-10-17T12:34:02.098Z,7.05
2022-10-17T12:36:28.700Z,6.85
2022-10-17T12:39:30.248Z,3.90
2022-10-17T12:41:56.827Z,5.15
2022-10-17T12:44:26.983Z,7.82
2022-10-17T12:47:05.915Z,6.78
2022-10-17T12:49:48.161Z,8.50
2022-10-17T12:52:31.115Z,4.65
2022-10-17T12:55:12.551Z,6.68
2022-10-17T12:58:03.402Z,6.65
2022-10-17T13:00:59.426Z,12.00
2022-10-17T13:03:34.880Z,5.40
2022-10-17T13:06:05.359Z,5.95
2022-10-17T13:08:33.183Z,4.85
2022-10-17T13:11:01.222Z,2.80
2022-10-17T13:13:42.782Z,2.85
2022-10-17T13:16:09.630Z,3.05
2022-10-17T13:18:36.238Z,3.17
2022-10-17T13:21:14.312Z,1.80
2022-10-17T13:23:40.913Z,1.42
2022-10-17T13:26:10.511Z,3.13
2022-10-17T13:28:39.388Z,2.60
2022-10-17T13:31:07.036Z,4.45
2022-10-17T13:36:06.723Z,3.75
2022-10-17T13:38:36.769Z,4.68
2022-10-17T13:41:34.904Z,1.80
2022-10-17T13:44:03.375Z,2.53
2022-10-17T13:46:37.932Z,2.03
2022-10-17T13:49:42.125Z,3.70
2022-10-17T13:52:21.296Z,1.55
2022-10-17T13:54:53.869Z,5.90
2022-10-17T13:57:31.924Z,3.45
2022-10-17T14:00:11.388Z,2.03
2022-10-17T14:02:38.422Z,2.95
2022-10-17T14:05:17.822Z,1.92
2022-10-17T14:08:09.880Z,2.47
2022-10-17T14:10:38.831Z,3.03
2022-10-17T14:13:08.294Z,4.47
2022-10-17T14:15:37.519Z,4.10
2022-10-17T14:18:08.185Z,2.88
2022-10-17T14:21:28.763Z,1.52
2022-10-17T14:23:44.412Z,2.55
2022-10-17T14:26:13.991Z,2.42
2022-10-17T14:28:43.611Z,4.30
2022-10-17T14:31:22.187Z,2.85
2022-10-17T14:33:51.292Z,4.50
2022-10-17T14:36:19.371Z,2.10
2022-10-17T14:38:52.235Z,4.55
2022-10-17T14:41:47.688Z,4.63
2022-10-17T14:44:30.753Z,2.13
2022-10-17T14:47:30.895Z,4.90
2022-10-17T14:50:07.248Z,3.85
2022-10-17T14:52:35.048Z,4.68
2022-10-17T14:55:20.957Z,4.80
2022-10-17T14:57:47.504Z,5.72
2022-10-17T15:00:16.361Z,3.43
2022-10-17T15:02:43.611Z,4.90
2022-10-17T15:05:13.272Z,4.65
2022-10-17T15:07:41.082Z,2.15
2022-10-17T15:10:21.241Z,3.88
2022-10-17T15:12:56.219Z,2.40
2022-10-17T15:15:25.835Z,3.70
2022-10-17T15:17:52.387Z,2.47
2022-10-17T15:20:20.095Z,1.70
2022-10-17T15:22:46.722Z,3.70
2022-10-17T15:25:13.259Z,1.85
2022-10-17T15:27:39.793Z,1.90
2022-10-17T15:30:21.822Z,5.43
2022-10-17T15:32:49.391Z,2.90
2022-10-17T15:37:43.285Z,2.75
2022-10-17T15:40:20.654Z,2.65
2022-10-17T15:42:47.245Z,2.53
2022-10-17T15:45:16.806Z,3.08
2022-10-17T15:47:49.600Z,4.30
2022-10-17T15:50:17.750Z,3.08
2022-10-17T15:52:47.013Z,3.25
2022-10-17T16:10:41.442Z,6.10
2022-10-17T16:13:17.369Z,3.90
2022-10-17T16:15:44.121Z,4.20
2022-10-17T16:18:10.807Z,2.30
2022-10-17T16:20:38.475Z,3.80
2022-10-17T16:23:05.571Z,2.85
2022-10-17T16:25:32.740Z,5.78
2022-10-17T16:28:00.200Z,2.42
2022-10-17T16:30:29.549Z,4.43
2022-10-17T16:32:56.991Z,2.20
2022-10-17T16:37:59.997Z,3.53
2022-10-17T16:40:26.585Z,3.70
2022-10-17T16:42:53.165Z,5.35
2022-10-17T16:45:21.965Z,2.78
2022-10-17T16:47:49.232Z,2.05
2022-10-17T16:50:16.107Z,1.98
2022-10-17T16:52:43.639Z,3.95
2022-10-17T16:55:10.691Z,4.18
2022-10-17T16:57:37.273Z,5.10
2022-10-17T17:00:06.081Z,6.90
2022-10-17T17:02:32.836Z,13.65
2022-10-17T17:04:59.706Z,7.57
2022-10-17T17:07:29.512Z,11.07
2022-10-17T17:09:56.501Z,13.57
2022-10-17T17:12:23.580Z,24.00
2022-10-17T17:14:50.277Z,16.17
2022-10-17T17:17:30.133Z,6.93
2022-10-17T17:20:04.110Z,5.93
2022-10-17T17:22:30.627Z,6.28
2022-10-17T17:24:57.154Z,6.47
2022-10-17T17:27:25.448Z,11.83
2022-10-17T17:29:52.008Z,7.95
2022-10-17T17:32:18.719Z,9.57
2022-10-17T17:34:45.380Z,9.73
2022-10-17T17:37:11.886Z,9.82
2022-10-17T17:39:38.476Z,9.87
2022-10-17T17:42:05.075Z,9.10
2022-10-17T17:44:31.988Z,8.10
2022-10-17T17:46:58.590Z,8.88
2022-10-17T17:49:25.232Z,19.40
2022-10-17T17:51:51.821Z,16.70
2022-10-17T17:54:18.450Z,19.88
2022-10-17T17:56:45.553Z,13.87
2022-10-17T17:59:12.822Z,8.35
2022-10-17T18:01:39.601Z,7.97
2022-10-17T18:04:08.925Z,7.97
2022-10-17T18:06:37.029Z,14.85
2022-10-17T18:09:04.683Z,12.23
2022-10-17T18:11:31.425Z,13.52
2022-10-17T18:14:00.359Z,13.23
2022-10-17T18:16:28.112Z,15.43
2022-10-17T18:18:54.774Z,14.90
2022-10-17T18:21:21.872Z,15.18
2022-10-17T18:23:49.473Z,13.88
2022-10-17T18:26:16.686Z,15.90
2022-10-17T18:28:43.862Z,13.15
2022-10-17T18:31:18.934Z,16.02
2022-10-17T18:33:46.474Z,14.05
2022-10-17T18:36:15.079Z,13.43
2022-10-17T18:38:42.722Z,13.40
2022-10-17T18:41:15.417Z,10.13
2022-10-17T18:43:44.587Z,10.00
2022-10-17T18:46:16.666Z,17.40
2022-10-17T18:48:44.928Z,21.77
2022-10-17T18:51:13.127Z,20.67
2022-10-17T18:53:50.752Z,18.88
2022-10-17T18:56:18.660Z,18.35
2022-10-17T18:58:45.706Z,17.77
2022-10-17T19:01:19.976Z,26.52
2022-10-17T19:03:49.217Z,19.10
2022-10-17T19:06:18.280Z,19.63
2022-10-17T19:08:45.733Z,15.98
2022-10-17T19:16:21.562Z,20.33
2022-10-17T19:19:18.406Z,19.50
2022-10-17T19:24:15.294Z,15.80
2022-10-17T19:26:43.264Z,14.52
2022-10-17T19:29:13.254Z,16.08
2022-10-17T19:31:40.179Z,16.00
2022-10-17T19:34:07.144Z,22.65
2022-10-17T19:36:35.395Z,25.20
2022-10-17T19:39:05.126Z,23.77
2022-10-17T19:41:32.344Z,21.75
2022-10-17T19:44:00.381Z,19.30
2022-10-17T19:46:28.433Z,21.35
2022-10-17T19:48:55.505Z,21.58
2022-10-17T19:51:26.746Z,18.48
2022-10-17T19:53:55.205Z,19.17
2022-10-17T19:56:23.241Z,18.83
2022-10-17T19:58:51.206Z,17.55
2022-10-17T20:01:23.020Z,16.65
2022-10-17T20:03:50.564Z,15.73
2022-10-17T20:06:18.545Z,16.55
2022-10-17T20:08:45.425Z,19.90
2022-10-17T20:11:14.867Z,13.88
2022-10-17T20:13:41.841Z,12.65
2022-10-17T20:16:11.697Z,13.80
2022-10-17T20:18:40.571Z,13.32
2022-10-17T20:21:10.383Z,10.60
2022-10-17T20:23:37.234Z,13.13
2022-10-17T20:26:08.081Z,15.30
2022-10-17T20:28:46.154Z,12.57
2022-10-17T20:31:13.490Z,12.98
2022-10-17T20:33:41.523Z,12.48
2022-10-17T20:36:10.240Z,19.27
2022-10-17T20:38:36.885Z,17.08
2022-10-17T20:41:05.521Z,18.77
2022-10-17T20:43:32.525Z,19.02
2022-10-17T20:46:09.636Z,18.88
2022-10-17T20:48:45.856Z,17.38
2022-10-17T20:51:12.509Z,16.80
2022-10-17T20:53:39.054Z,17.40
2022-10-17T20:56:08.765Z,19.70
2022-10-17T20:58:35.814Z,17.73
2022-10-17T21:01:10.208Z,17.58
2022-10-17T21:03:43.830Z,18.00
2022-10-17T21:06:13.656Z,10.48
2022-10-17T21:08:40.371Z,11.55
2022-10-17T21:11:14.408Z,11.52
2022-10-17T21:13:41.686Z,10.18
2022-10-17T21:16:13.595Z,8.20
2022-10-17T21:18:40.973Z,7.05
2022-10-17T21:23:39.627Z,10.60
2022-10-17T21:26:08.975Z,13.57
2022-10-17T21:28:37.138Z,7.13
2022-10-17T21:31:29.849Z,8.63
2022-10-17T21:33:58.948Z,23.02
2022-10-17T21:36:27.220Z,23.42
2022-10-17T21:38:56.950Z,21.70
2022-10-17T21:41:26.068Z,26.35
2022-10-17T21:43:55.235Z,24.27
2022-10-17T21:46:22.471Z,26.63
2022-10-17T21:48:51.666Z,24.73
2022-10-17T21:51:20.785Z,24.00
2022-10-17T21:53:48.121Z,21.40
2022-10-17T21:56:19.793Z,21.65
2022-10-17T21:58:46.814Z,25.67
2022-10-17T22:01:17.291Z,22.30
2022-10-17T22:03:46.971Z,16.08
2022-10-17T22:09:09.032Z,16.88
2022-10-17T22:11:36.105Z,17.27
2022-10-17T22:14:06.270Z,16.48
2022-10-17T22:16:33.831Z,15.65
2022-10-17T22:19:05.868Z,14.15
2022-10-17T22:21:35.281Z,16.02
2022-10-17T22:24:05.346Z,12.73
2022-10-17T22:26:33.197Z,12.35
2022-10-17T22:28:59.883Z,12.27
2022-10-17T22:31:26.702Z,10.82
2022-10-17T22:33:53.676Z,12.32
2022-10-17T22:36:20.307Z,9.73
2022-10-17T22:38:46.894Z,9.02
2022-10-17T22:41:13.557Z,12.68
2022-10-17T22:43:40.106Z,11.75
2022-10-17T22:46:07.476Z,9.27
2022-10-17T22:51:01.600Z,11.00
2022-10-17T22:53:29.665Z,9.85
2022-10-17T22:56:09.275Z,9.40
2022-10-17T22:58:36.365Z,11.38
2022-10-17T23:01:05.934Z,8.93
2022-10-17T23:03:33.443Z,8.35
2022-10-17T23:06:00.662Z,12.02
2022-10-17T23:08:27.885Z,10.30
2022-10-17T23:10:54.858Z,9.07
2022-10-17T23:13:21.987Z,9.95
2022-10-17T23:15:53.623Z,10.13
2022-10-17T23:18:21.283Z,10.35
2022-10-17T23:20:48.258Z,8.90
2022-10-17T23:23:15.591Z,10.77
2022-10-17T23:28:09.356Z,10.68
2022-10-17T23:30:36.783Z,10.65
2022-10-17T23:35:30.624Z,10.80
2022-10-17T23:37:57.262Z,14.40
2022-10-17T23:40:23.967Z,13.82
2022-10-17T23:42:50.519Z,12.20
2022-10-17T23:45:17.115Z,11.00
2022-10-17T23:47:43.661Z,10.52
2022-10-17T23:50:10.290Z,12.93
2022-10-17T23:52:36.827Z,11.80
2022-10-17T23:55:04.116Z,12.52
2022-10-17T23:57:30.865Z,12.38
2022-10-17T23:59:57.638Z,13.70
